createdAt,value
2022-09-18T00:01:33.963Z,16.65
2022-09-18T00:04:07.228Z,16.74
2022-09-18T00:06:38.556Z,16.80
2022-09-18T00:09:09.930Z,16.84
2022-09-18T00:11:40.689Z,16.81
2022-09-18T00:14:10.617Z,16.91
2022-09-18T00:16:39.117Z,16.81
2022-09-18T00:19:07.407Z,16.93
2022-09-18T00:21:37.597Z,17.05
2022-09-18T00:24:06.980Z,16.98
2022-09-18T00:26:35.879Z,17.01
2022-09-18T00:29:04.423Z,16.98
2022-09-18T00:31:35.190Z,16.98
2022-09-18T00:34:11.450Z,17.05
2022-09-18T00:36:39.734Z,17.06
2022-09-18T00:39:08.253Z,17.10
2022-09-18T00:41:39.788Z,17.15
2022-09-18T00:44:46.068Z,17.25
2022-09-18T00:47:29.885Z,17.22
2022-09-18T00:49:57.274Z,17.17
2022-09-18T00:52:29.779Z,17.17
2022-09-18T00:55:02.877Z,17.21
2022-09-18T00:57:34.053Z,17.30
2022-09-18T01:00:04.515Z,17.25
2022-09-18T01:02:32.270Z,17.31
2022-09-18T01:04:59.766Z,17.34
2022-09-18T01:07:54.613Z,17.50
2022-09-18T01:10:40.588Z,17.55
2022-09-18T01:13:34.941Z,17.56
2022-09-18T01:16:22.838Z,17.53
2022-09-18T01:19:24.477Z,17.62
2022-09-18T01:22:22.766Z,17.63
2022-09-18T01:25:08.361Z,17.61
2022-09-18T01:27:40.135Z,17.56
2022-09-18T01:30:11.464Z,17.55
2022-09-18T01:32:59.590Z,17.62
2022-09-18T01:35:42.200Z,17.57
2022-09-18T01:38:32.132Z,17.55
2022-09-18T01:41:12.009Z,17.55
2022-09-18T01:43:41.597Z,17.74
2022-09-18T01:46:15.818Z,17.76
2022-09-18T01:48:57.482Z,17.76
2022-09-18T01:51:40.250Z,17.76
2022-09-18T01:54:17.330Z,17.77
2022-09-18T01:56:51.888Z,17.78
2022-09-18T01:59:25.142Z,17.73
2022-09-18T02:02:03.834Z,17.76
2022-09-18T02:04:36.314Z,17.87
2022-09-18T02:07:28.928Z,18.00
2022-09-18T02:09:58.625Z,17.92
2022-09-18T02:12:29.357Z,17.90
2022-09-18T02:15:06.302Z,17.90
2022-09-18T02:17:59.528Z,18.19
2022-09-18T02:20:38.768Z,18.01
2022-09-18T02:23:08.315Z,18.01
2022-09-18T02:25:46.191Z,18.02
2022-09-18T02:28:17.218Z,18.05
2022-09-18T02:30:45.763Z,18.03
2022-09-18T02:33:30.927Z,18.18
2022-09-18T02:36:07.671Z,18.02
2022-09-18T02:39:09.050Z,18.12
2022-09-18T02:41:58.156Z,18.16
2022-09-18T02:44:43.081Z,18.13
2022-09-18T02:47:31.271Z,18.14
2022-09-18T02:50:13.431Z,18.04
2022-09-18T02:52:41.398Z,18.13
2022-09-18T02:55:32.247Z,18.28
2022-09-18T02:58:05.975Z,18.28
2022-09-18T03:00:36.322Z,18.31
2022-09-18T03:03:15.797Z,18.38
2022-09-18T03:05:51.110Z,18.38
2022-09-18T03:08:19.630Z,18.44
2022-09-18T03:10:47.189Z,18.44
2022-09-18T03:13:15.821Z,18.44
2022-09-18T03:15:43.724Z,18.43
2022-09-18T03:18:11.808Z,18.52
2022-09-18T03:20:42.476Z,18.53
2022-09-18T03:23:11.237Z,18.51
2022-09-18T03:25:39.551Z,18.58
2022-09-18T03:28:09.114Z,18.60
2022-09-18T03:30:40.550Z,18.61
2022-09-18T03:33:08.756Z,18.57
2022-09-18T03:35:36.357Z,18.60
2022-09-18T03:38:03.889Z,18.60
2022-09-18T03:40:32.045Z,18.60
2022-09-18T03:43:04.314Z,18.59
2022-09-18T03:45:32.132Z,18.64
2022-09-18T03:48:00.690Z,18.62
2022-09-18T03:50:29.580Z,18.67
2022-09-18T03:52:57.491Z,18.70
2022-09-18T03:55:39.321Z,18.73
2022-09-18T03:58:22.009Z,18.75
2022-09-18T04:01:08.439Z,18.78
2022-09-18T04:03:56.068Z,18.77
2022-09-18T04:06:49.612Z,18.80
2022-09-18T04:09:37.039Z,18.82
2022-09-18T04:12:04.693Z,18.78
2022-09-18T04:14:32.954Z,18.78
2022-09-18T04:17:00.774Z,18.78
2022-09-18T04:19:30.323Z,18.76
2022-09-18T04:21:58.684Z,18.79
2022-09-18T04:24:26.562Z,18.85
2022-09-18T04:26:54.105Z,18.92
2022-09-18T04:29:24.355Z,18.90
2022-09-18T04:31:52.278Z,18.95
2022-09-18T04:34:22.130Z,19.03
2022-09-18T04:36:49.750Z,19.08
2022-09-18T04:39:17.664Z,19.06
2022-09-18T04:41:48.016Z,19.03
2022-09-18T04:44:15.851Z,19.00
2022-09-18T04:46:44.088Z,18.99
2022-09-18T04:49:11.768Z,19.05
2022-09-18T04:51:39.249Z,19.14
2022-09-18T04:54:06.786Z,19.21
2022-09-18T04:56:38.252Z,19.28
2022-09-18T04:59:05.709Z,19.32
2022-09-18T05:01:38.389Z,19.18
2022-09-18T05:04:11.584Z,19.24
2022-09-18T05:06:48.447Z,19.25
2022-09-18T05:09:17.828Z,19.23
2022-09-18T05:11:45.366Z,19.24
2022-09-18T05:14:13.140Z,19.29
2022-09-18T05:16:44.471Z,19.16
2022-09-18T05:19:37.474Z,19.22
2022-09-18T05:22:10.563Z,19.20
2022-09-18T05:24:42.283Z,19.23
2022-09-18T05:27:09.759Z,19.31
2022-09-18T05:29:37.964Z,19.34
2022-09-18T05:32:18.559Z,19.33
2022-09-18T05:34:50.411Z,19.37
2022-09-18T05:37:18.902Z,19.40
2022-09-18T05:39:50.678Z,19.37
2022-09-18T05:42:18.154Z,19.41
2022-09-18T05:44:45.567Z,19.38
2022-09-18T05:47:18.287Z,19.46
2022-09-18T05:49:45.800Z,19.43
2022-09-18T05:52:13.654Z,19.44
2022-09-18T05:54:41.768Z,19.50
2022-09-18T05:57:10.265Z,19.48
2022-09-18T05:59:37.852Z,19.48
2022-09-18T06:02:06.296Z,19.54
2022-09-18T06:04:53.895Z,19.57
2022-09-18T06:07:21.277Z,19.59
2022-09-18T06:09:50.025Z,19.63
2022-09-18T06:12:17.516Z,19.69
2022-09-18T06:14:44.969Z,19.69
2022-09-18T06:17:12.301Z,19.76
2022-09-18T06:19:39.835Z,19.77
2022-09-18T06:22:08.427Z,19.73
2022-09-18T06:24:37.125Z,19.79
2022-09-18T06:27:10.150Z,19.82
2022-09-18T06:29:39.087Z,19.88
2022-09-18T06:32:11.735Z,19.91
2022-09-18T06:34:40.798Z,19.92
2022-09-18T06:37:12.192Z,19.97
2022-09-18T06:39:42.875Z,19.96
2022-09-18T06:42:17.173Z,19.93
2022-09-18T06:45:16.731Z,19.96
2022-09-18T06:47:47.623Z,20.00
2022-09-18T06:50:15.051Z,20.01
2022-09-18T06:52:45.311Z,20.03
2022-09-18T06:55:13.072Z,20.09
2022-09-18T06:57:40.723Z,20.17
2022-09-18T07:00:11.799Z,20.14
2022-09-18T07:02:40.434Z,20.09
2022-09-18T07:05:32.952Z,20.24
2022-09-18T07:08:00.781Z,20.22
2022-09-18T07:10:30.991Z,20.27
2022-09-18T07:13:00.870Z,20.31
2022-09-18T07:15:29.942Z,20.34
2022-09-18T07:18:03.067Z,20.37
2022-09-18T07:20:30.982Z,20.37
2022-09-18T07:23:01.289Z,20.34
2022-09-18T07:25:41.397Z,20.29
2022-09-18T07:28:11.490Z,20.20
2022-09-18T07:30:46.752Z,20.06
2022-09-18T07:33:15.650Z,20.07
2022-09-18T07:35:48.097Z,19.98
2022-09-18T07:38:17.852Z,19.97
2022-09-18T07:40:53.059Z,19.94
2022-09-18T07:43:28.999Z,19.92
2022-09-18T07:45:56.590Z,19.90
2022-09-18T07:48:24.635Z,19.85
2022-09-18T07:50:58.623Z,19.90
2022-09-18T07:53:26.716Z,19.92
2022-09-18T07:55:57.922Z,19.93
2022-09-18T07:58:27.268Z,19.89
2022-09-18T08:01:02.827Z,19.91
2022-09-18T08:03:32.615Z,19.97
2022-09-18T08:06:20.768Z,20.03
2022-09-18T08:09:08.433Z,20.02
2022-09-18T08:11:54.428Z,20.07
2022-09-18T08:14:30.405Z,20.10
2022-09-18T08:17:20.798Z,20.13
2022-09-18T08:20:14.651Z,20.16
2022-09-18T08:22:48.972Z,20.18
2022-09-18T08:25:18.119Z,20.23
2022-09-18T08:27:48.621Z,20.13
2022-09-18T08:30:22.704Z,20.30
2022-09-18T08:33:08.019Z,20.44
2022-09-18T08:35:35.844Z,20.42
2022-09-18T08:38:17.062Z,20.43
2022-09-18T08:41:50.308Z,20.73
2022-09-18T08:44:24.551Z,20.96
2022-09-18T08:47:01.006Z,20.86
2022-09-18T08:49:32.535Z,20.91
2022-09-18T08:52:23.566Z,21.08
2022-09-18T08:55:33.651Z,20.93
2022-09-18T08:58:16.699Z,21.04
2022-09-18T09:01:16.159Z,21.09
2022-09-18T09:04:13.116Z,21.08
2022-09-18T09:06:55.771Z,21.22
2022-09-18T09:09:40.455Z,21.11
2022-09-18T09:12:24.071Z,21.26
2022-09-18T09:15:20.818Z,21.30
2022-09-18T09:18:23.293Z,21.41
2022-09-18T09:20:55.260Z,21.37
2022-09-18T09:23:46.455Z,21.41
2022-09-18T09:26:28.509Z,21.40
2022-09-18T09:29:24.033Z,21.50
2022-09-18T09:32:28.822Z,21.55
2022-09-18T09:35:17.066Z,21.55
2022-09-18T09:38:13.351Z,21.45
2022-09-18T09:40:50.237Z,21.46
2022-09-18T09:43:24.851Z,21.50
2022-09-18T09:45:59.569Z,21.43
2022-09-18T09:48:36.819Z,21.52
2022-09-18T09:51:49.999Z,21.64
2022-09-18T09:54:17.782Z,21.48
2022-09-18T09:56:57.300Z,21.59
2022-09-18T09:59:40.716Z,21.68
2022-09-18T10:02:56.593Z,21.81
2022-09-18T10:05:45.004Z,21.86
2022-09-18T10:08:29.511Z,21.86
2022-09-18T10:11:11.544Z,21.87
2022-09-18T10:13:44.143Z,21.71
2022-09-18T10:16:24.909Z,21.93
2022-09-18T10:18:53.961Z,21.76
2022-09-18T10:21:27.428Z,21.82
2022-09-18T10:24:01.485Z,21.85
2022-09-18T10:26:38.423Z,21.88
2022-09-18T10:29:06.370Z,21.82
2022-09-18T10:31:48.719Z,21.88
2022-09-18T10:34:41.517Z,21.93
2022-09-18T10:37:46.416Z,21.92
2022-09-18T10:40:32.062Z,21.88
2022-09-18T10:43:01.356Z,21.83
2022-09-18T10:45:40.474Z,21.94
2022-09-18T10:48:27.882Z,21.85
2022-09-18T10:51:04.940Z,21.94
2022-09-18T10:53:42.787Z,21.81
2022-09-18T10:56:26.283Z,21.85
2022-09-18T10:58:57.616Z,21.81
2022-09-18T11:01:26.506Z,21.77
2022-09-18T11:04:06.985Z,21.93
2022-09-18T11:06:38.072Z,21.87
2022-09-18T11:09:33.744Z,21.94
2022-09-18T11:12:02.687Z,21.84
2022-09-18T11:14:41.990Z,21.98
2022-09-18T11:17:24.035Z,21.93
2022-09-18T11:19:55.145Z,21.85
2022-09-18T11:22:46.018Z,21.86
2022-09-18T11:25:28.954Z,21.79
2022-09-18T11:28:24.126Z,21.98
2022-09-18T11:30:59.278Z,21.89
2022-09-18T11:33:31.560Z,21.84
2022-09-18T11:36:05.949Z,21.87
2022-09-18T11:38:46.213Z,21.95
2022-09-18T11:41:23.467Z,21.91
2022-09-18T11:44:04.891Z,21.98
2022-09-18T11:46:52.096Z,21.83
2022-09-18T11:52:04.286Z,21.81
2022-09-18T11:57:21.790Z,21.72
2022-09-18T12:00:05.049Z,21.70
2022-09-18T12:02:53.171Z,21.70
2022-09-18T12:05:41.253Z,21.65
2022-09-18T12:08:21.494Z,21.57
2022-09-18T12:11:24.237Z,21.63
2022-09-18T12:14:13.731Z,21.63
2022-09-18T12:17:28.221Z,21.60
2022-09-18T12:20:02.636Z,21.41
2022-09-18T12:22:45.164Z,21.48
2022-09-18T12:25:17.162Z,21.31
2022-09-18T12:28:15.031Z,21.26
2022-09-18T12:30:54.874Z,21.35
2022-09-18T12:33:48.590Z,21.45
2022-09-18T12:36:37.702Z,21.23
2022-09-18T12:39:24.269Z,21.37
2022-09-18T12:42:19.001Z,21.29
2022-09-18T12:45:05.047Z,21.29
2022-09-18T12:47:57.340Z,21.29
2022-09-18T12:50:59.280Z,21.22
2022-09-18T12:53:45.377Z,21.05
2022-09-18T12:56:27.307Z,21.03
2022-09-18T12:59:01.447Z,21.06
2022-09-18T13:02:00.471Z,21.15
2022-09-18T13:04:41.010Z,21.02
2022-09-18T13:07:17.385Z,20.86
2022-09-18T13:10:07.277Z,20.94
2022-09-18T13:12:41.773Z,20.79
2022-09-18T13:15:33.941Z,20.69
2022-09-18T13:18:19.172Z,20.73
2022-09-18T13:20:47.284Z,20.50
2022-09-18T13:23:39.521Z,20.83
2022-09-18T13:26:13.361Z,20.69
2022-09-18T13:28:42.641Z,20.54
2022-09-18T13:31:32.683Z,20.63
2022-09-18T13:34:01.524Z,20.37
2022-09-18T13:36:38.464Z,20.39
2022-09-18T13:39:16.175Z,20.29
2022-09-18T13:41:50.677Z,20.35
2022-09-18T13:44:21.634Z,20.21
2022-09-18T13:46:51.871Z,20.12
2022-09-18T13:49:29.164Z,20.22
2022-09-18T13:51:57.218Z,19.95
2022-09-18T13:54:28.530Z,19.90
2022-09-18T13:57:11.183Z,19.93
2022-09-18T13:59:48.622Z,19.89
2022-09-18T14:02:31.501Z,19.97
2022-09-18T14:05:18.895Z,19.66
2022-09-18T14:07:54.163Z,19.74
2022-09-18T14:10:26.712Z,19.56
2022-09-18T14:13:24.341Z,19.55
2022-09-18T14:15:59.211Z,19.28
2022-09-18T14:18:45.091Z,19.42
2022-09-18T14:21:18.976Z,19.30
2022-09-18T14:23:46.733Z,19.07
2022-09-18T14:26:37.501Z,19.26
2022-09-18T14:29:11.040Z,18.95
2022-09-18T14:31:41.511Z,19.46
2022-09-18T14:34:22.247Z,19.22
2022-09-18T14:36:55.417Z,18.96
2022-09-18T14:39:28.709Z,18.76
2022-09-18T14:42:00.313Z,18.64
2022-09-18T14:44:30.036Z,18.55
2022-09-18T14:46:59.986Z,18.51
2022-09-18T14:49:31.628Z,18.54
2022-09-18T14:52:04.956Z,18.37
2022-09-18T14:54:40.392Z,18.94
2022-09-18T14:57:15.407Z,18.60
2022-09-18T14:59:43.063Z,18.35
2022-09-18T15:02:32.223Z,18.40
2022-09-18T15:05:02.267Z,18.32
2022-09-18T15:07:31.055Z,18.28
2022-09-18T15:10:02.922Z,18.30
2022-09-18T15:12:33.010Z,18.13
2022-09-18T15:15:00.516Z,18.10
2022-09-18T15:17:31.109Z,18.11
2022-09-18T15:20:02.851Z,18.21
2022-09-18T15:22:31.270Z,18.07
2022-09-18T15:25:02.089Z,18.02
2022-09-18T15:27:31.936Z,17.99
2022-09-18T15:30:01.675Z,17.98
2022-09-18T15:32:38.415Z,17.96
2022-09-18T15:35:13.032Z,17.90
2022-09-18T15:37:50.594Z,17.84
2022-09-18T15:40:25.028Z,17.87
2022-09-18T15:42:59.463Z,17.81
2022-09-18T15:45:30.118Z,17.78
2022-09-18T15:48:00.828Z,17.69
2022-09-18T15:50:34.070Z,17.76
2022-09-18T15:53:14.090Z,17.50
2022-09-18T15:56:02.833Z,17.76
2022-09-18T15:58:35.675Z,17.58
2022-09-18T16:01:06.978Z,17.46
2022-09-18T16:03:41.803Z,17.53
2022-09-18T16:06:21.766Z,17.53
2022-09-18T16:08:53.238Z,17.37
2022-09-18T16:11:46.686Z,17.47
2022-09-18T16:14:43.867Z,17.49
2022-09-18T16:17:31.216Z,17.51
2022-09-18T16:20:20.352Z,17.23
2022-09-18T16:22:49.474Z,17.15
2022-09-18T16:25:24.665Z,17.20
2022-09-18T16:27:56.646Z,17.16
2022-09-18T16:30:25.575Z,17.02
2022-09-18T16:33:00.198Z,17.07
2022-09-18T16:35:27.930Z,16.94
2022-09-18T16:37:56.022Z,16.86
2022-09-18T16:40:27.616Z,16.89
2022-09-18T16:42:58.659Z,16.77
2022-09-18T16:45:29.190Z,16.75
2022-09-18T16:48:00.498Z,16.67
2022-09-18T16:50:28.410Z,16.70
2022-09-18T16:53:00.718Z,16.69
2022-09-18T16:55:30.990Z,16.77
2022-09-18T16:57:58.899Z,16.62
2022-09-18T17:00:28.073Z,16.67
2022-09-18T17:02:57.275Z,16.67
2022-09-18T17:05:26.340Z,16.65
2022-09-18T17:07:54.061Z,16.49
2022-09-18T17:10:21.900Z,16.57
2022-09-18T17:12:49.562Z,16.61
2022-09-18T17:15:17.466Z,16.60
2022-09-18T17:17:45.867Z,16.61
2022-09-18T17:20:17.991Z,16.63
2022-09-18T17:22:47.264Z,16.61
2022-09-18T17:25:16.075Z,16.66
2022-09-18T17:27:44.104Z,16.75
2022-09-18T17:30:12.938Z,16.77
2022-09-18T17:32:40.513Z,16.75
2022-09-18T17:35:08.361Z,16.76
2022-09-18T17:37:36.171Z,16.72
2022-09-18T17:40:03.815Z,16.70
2022-09-18T17:42:31.516Z,16.68
2022-09-18T17:44:59.333Z,16.78
2022-09-18T17:47:26.838Z,16.76
2022-09-18T17:49:54.330Z,16.78
2022-09-18T17:52:21.846Z,16.65
2022-09-18T17:54:49.800Z,16.66
2022-09-18T17:57:17.750Z,16.65
2022-09-18T17:59:45.330Z,16.66
2022-09-18T18:02:14.017Z,16.72
2022-09-18T18:04:41.718Z,16.68
2022-09-18T18:07:09.400Z,16.64
2022-09-18T18:09:37.815Z,16.63
2022-09-18T18:12:06.235Z,16.63
2022-09-18T18:14:34.922Z,16.58
2022-09-18T18:17:04.360Z,16.49
2022-09-18T18:19:31.753Z,16.46
2022-09-18T18:21:59.235Z,16.46
2022-09-18T18:24:27.250Z,16.52
2022-09-18T18:26:56.045Z,16.57
2022-09-18T18:29:24.099Z,16.46
2022-09-18T18:31:52.021Z,16.44
2022-09-18T18:34:25.449Z,16.42
2022-09-18T18:36:53.517Z,16.91
2022-09-18T18:39:20.966Z,16.51
2022-09-18T18:41:48.896Z,16.52
2022-09-18T18:44:16.610Z,16.38
2022-09-18T18:46:44.611Z,16.29
2022-09-18T18:49:16.863Z,16.17
2022-09-18T18:51:48.056Z,16.19
2022-09-18T18:54:17.897Z,16.13
2022-09-18T18:56:47.302Z,15.99
2022-09-18T18:59:17.188Z,15.98
2022-09-18T19:01:44.915Z,15.92
2022-09-18T19:04:15.411Z,15.92
2022-09-18T19:06:44.371Z,15.92
2022-09-18T19:09:20.487Z,16.04
2022-09-18T19:11:50.327Z,15.89
2022-09-18T19:14:23.705Z,15.98
2022-09-18T19:16:52.206Z,15.86
2022-09-18T19:19:23.736Z,15.89
2022-09-18T19:21:53.061Z,15.80
2022-09-18T19:24:21.656Z,15.82
2022-09-18T19:26:49.380Z,15.82
2022-09-18T19:29:19.015Z,15.84
2022-09-18T19:31:47.433Z,15.81
2022-09-18T19:34:18.975Z,15.88
2022-09-18T19:36:50.481Z,15.81
2022-09-18T19:39:24.121Z,15.96
2022-09-18T19:42:08.278Z,15.91
2022-09-18T19:44:48.596Z,15.99
2022-09-18T19:47:28.060Z,16.06
2022-09-18T19:50:02.059Z,16.04
2022-09-18T19:52:30.957Z,15.87
2022-09-18T19:54:59.346Z,15.86
2022-09-18T19:57:28.727Z,15.86
2022-09-18T19:59:57.479Z,15.67
2022-09-18T20:02:25.738Z,15.65
2022-09-18T20:04:53.442Z,15.66
2022-09-18T20:07:20.922Z,15.70
2022-09-18T20:09:48.623Z,15.80
2022-09-18T20:12:16.269Z,15.80
2022-09-18T20:14:43.856Z,15.77
2022-09-18T20:17:11.534Z,15.69
2022-09-18T20:19:39.101Z,15.61
2022-09-18T20:22:06.592Z,15.57
2022-09-18T20:24:34.531Z,15.48
2022-09-18T20:27:02.064Z,15.49
2022-09-18T20:29:30.734Z,15.50
2022-09-18T20:31:58.395Z,15.49
2022-09-18T20:34:26.274Z,15.47
2022-09-18T20:36:55.152Z,15.44
2022-09-18T20:39:22.773Z,15.50
2022-09-18T20:41:51.398Z,15.47
2022-09-18T20:44:22.257Z,15.51
2022-09-18T20:46:50.777Z,15.37
2022-09-18T20:49:18.299Z,15.37
2022-09-18T20:51:46.286Z,15.40
2022-09-18T20:54:14.929Z,15.40
2022-09-18T20:56:44.800Z,15.45
2022-09-18T20:59:16.187Z,15.46
2022-09-18T21:01:45.159Z,15.51
2022-09-18T21:04:17.645Z,15.51
2022-09-18T21:06:57.591Z,15.71
2022-09-18T21:09:27.060Z,15.49
2022-09-18T21:11:56.977Z,15.38
2022-09-18T21:14:27.646Z,15.35
2022-09-18T21:16:56.109Z,15.28
2022-09-18T21:19:26.353Z,15.24
2022-09-18T21:21:54.070Z,15.22
2022-09-18T21:24:22.622Z,15.21
2022-09-18T21:26:50.602Z,15.24
2022-09-18T21:29:21.178Z,15.40
2022-09-18T21:31:51.605Z,15.45
2022-09-18T21:34:30.371Z,15.41
2022-09-18T21:37:00.078Z,15.36
2022-09-18T21:39:28.618Z,15.35
2022-09-18T21:41:58.387Z,15.33
2022-09-18T21:44:28.374Z,15.25
2022-09-18T21:47:02.262Z,15.34
2022-09-18T21:49:30.778Z,15.14
2022-09-18T21:52:06.966Z,15.25
2022-09-18T21:54:34.621Z,15.03
2022-09-18T21:57:02.724Z,14.95
2022-09-18T21:59:32.108Z,14.98
2022-09-18T22:02:00.879Z,14.90
2022-09-18T22:04:30.893Z,14.92
2022-09-18T22:07:00.619Z,14.96
2022-09-18T22:09:30.798Z,14.99
2022-09-18T22:11:58.656Z,14.96
2022-09-18T22:14:32.477Z,15.01
2022-09-18T22:17:01.900Z,14.97
2022-09-18T22:19:29.625Z,14.99
2022-09-18T22:21:57.243Z,14.98
2022-09-18T22:24:26.159Z,14.90
2022-09-18T22:27:08.672Z,15.00
2022-09-18T22:29:37.895Z,14.90
2022-09-18T22:32:06.198Z,14.82
2022-09-18T22:34:37.276Z,14.87
2022-09-18T22:37:05.561Z,14.86
2022-09-18T22:39:33.133Z,14.96
2022-09-18T22:42:01.133Z,14.97
2022-09-18T22:44:28.507Z,14.97
2022-09-18T22:46:56.100Z,15.00
2022-09-18T22:49:24.383Z,15.05
2022-09-18T22:51:52.562Z,15.04
2022-09-18T22:54:25.147Z,15.13
2022-09-18T22:56:53.594Z,14.95
2022-09-18T22:59:23.219Z,14.92
2022-09-18T23:02:00.916Z,15.00
2022-09-18T23:04:30.248Z,14.81
2022-09-18T23:06:59.535Z,14.76
2022-09-18T23:09:27.778Z,14.73
2022-09-18T23:11:55.902Z,14.70
2022-09-18T23:14:26.503Z,14.71
2022-09-18T23:16:55.004Z,14.59
2022-09-18T23:19:27.124Z,14.61
2022-09-18T23:21:55.867Z,14.63
2022-09-18T23:24:24.057Z,14.54
2022-09-18T23:26:53.025Z,14.52
2022-09-18T23:29:22.979Z,14.54
2022-09-18T23:31:58.013Z,14.55
2022-09-18T23:34:29.469Z,14.62
2022-09-18T23:36:58.733Z,14.53
2022-09-18T23:39:28.879Z,14.53
2022-09-18T23:41:59.000Z,14.55
2022-09-18T23:44:28.913Z,14.60
2022-09-18T23:46:56.498Z,14.63
2022-09-18T23:49:24.106Z,14.63
2022-09-18T23:51:54.190Z,14.62
2022-09-18T23:54:24.380Z,14.66
2022-09-18T23:56:52.886Z,14.62
2022-09-18T23:59:23.039Z,14.67
